createdAt,value
2023-01-20T00:01:23.900Z,96801.34
2023-01-20T00:03:56.202Z,96815.28
2023-01-20T00:06:24.360Z,96809.13
2023-01-20T00:08:55.748Z,96809.91
2023-01-20T00:11:22.429Z,96811.44
2023-01-20T00:13:48.966Z,96811.78
2023-01-20T00:16:15.549Z,96809.03
2023-01-20T00:18:42.081Z,96816.00
2023-01-20T00:21:12.015Z,96807.94
2023-01-20T00:23:39.520Z,96806.03
2023-01-20T00:26:12.209Z,96822.94
2023-01-20T00:28:38.908Z,96817.16
2023-01-20T00:31:21.263Z,96830.63
2023-01-20T00:33:49.108Z,96824.47
2023-01-20T00:36:18.603Z,96824.78
2023-01-20T00:38:45.562Z,96823.63
2023-01-20T00:41:13.753Z,96815.16
2023-01-20T00:43:40.640Z,96821.28
2023-01-20T00:46:07.473Z,96819.72
2023-01-20T00:48:35.060Z,96825.16
2023-01-20T00:51:02.502Z,96835.91
2023-01-20T00:53:29.322Z,96839.75
2023-01-20T00:55:55.854Z,96842.75
2023-01-20T00:58:22.728Z,96842.38
2023-01-20T01:00:51.024Z,96853.59
2023-01-20T01:03:18.218Z,96859.75
2023-01-20T01:05:45.528Z,96860.41
2023-01-20T01:08:12.523Z,96855.06
2023-01-20T01:10:39.337Z,96851.97
2023-01-20T01:13:06.662Z,96849.66
2023-01-20T01:15:33.217Z,96849.63
2023-01-20T01:18:00.058Z,96855.38
2023-01-20T01:20:28.390Z,96858.06
2023-01-20T01:22:55.650Z,96861.88
2023-01-20T01:25:22.284Z,96864.16
2023-01-20T01:27:48.825Z,96864.91
2023-01-20T01:30:15.433Z,96866.44
2023-01-20T01:32:41.918Z,96868.22
2023-01-20T01:35:08.755Z,96854.41
2023-01-20T01:37:35.130Z,96866.31
2023-01-20T01:40:01.901Z,96862.44
2023-01-20T01:42:28.528Z,96861.59
2023-01-20T01:45:10.530Z,96866.53
2023-01-20T01:47:57.961Z,96855.38
2023-01-20T01:50:31.152Z,96848.34
2023-01-20T01:52:57.887Z,96856.13
2023-01-20T01:55:28.624Z,96856.75
2023-01-20T01:57:56.971Z,96856.78
2023-01-20T02:00:23.600Z,96858.34
2023-01-20T02:02:51.051Z,96847.56
2023-01-20T02:05:18.911Z,96846.41
2023-01-20T02:07:47.719Z,96849.88
2023-01-20T02:10:15.535Z,96850.38
2023-01-20T02:12:44.981Z,96849.72
2023-01-20T02:15:11.853Z,96847.69
2023-01-20T02:17:53.833Z,96849.59
2023-01-20T02:21:09.236Z,96853.50
2023-01-20T02:23:54.177Z,96858.88
2023-01-20T02:26:35.993Z,96857.22
2023-01-20T02:29:32.876Z,96851.88
2023-01-20T02:32:11.542Z,96857.25
2023-01-20T02:34:54.647Z,96853.00
2023-01-20T02:37:28.597Z,96856.44
2023-01-20T02:40:10.346Z,96860.25
2023-01-20T02:42:42.598Z,96858.66
2023-01-20T02:45:14.934Z,96863.25
2023-01-20T02:47:51.928Z,96865.94
2023-01-20T02:50:27.847Z,96858.59
2023-01-20T02:52:58.504Z,96864.72
2023-01-20T02:55:36.895Z,96863.84
2023-01-20T02:58:07.838Z,96862.25
2023-01-20T03:00:40.527Z,96876.88
2023-01-20T03:03:12.173Z,96880.00
2023-01-20T03:05:44.291Z,96877.63
2023-01-20T03:08:14.660Z,96870.03
2023-01-20T03:10:42.843Z,96875.41
2023-01-20T03:13:16.301Z,96879.50
2023-01-20T03:15:58.262Z,96877.66
2023-01-20T03:18:25.549Z,96887.94
2023-01-20T03:20:52.145Z,96895.81
2023-01-20T03:23:18.458Z,96900.13
2023-01-20T03:25:47.715Z,96901.72
2023-01-20T03:28:14.271Z,96905.88
2023-01-20T03:30:41.080Z,96909.91
2023-01-20T03:33:09.004Z,96912.03
2023-01-20T03:35:36.628Z,96908.59
2023-01-20T03:38:03.296Z,96914.28
2023-01-20T03:40:35.519Z,96920.44
2023-01-20T03:43:11.000Z,96926.59
2023-01-20T03:45:50.442Z,96927.72
2023-01-20T03:48:28.918Z,96922.88
2023-01-20T03:51:00.024Z,96922.34
2023-01-20T03:53:45.528Z,96924.47
2023-01-20T03:56:30.201Z,96937.91
2023-01-20T03:59:01.367Z,96939.72
2023-01-20T04:01:34.056Z,96941.22
2023-01-20T04:04:03.516Z,96943.69
2023-01-20T04:06:34.089Z,96949.88
2023-01-20T04:09:10.224Z,96956.03
2023-01-20T04:11:36.584Z,96947.94
2023-01-20T04:14:03.189Z,96956.41
2023-01-20T04:16:29.553Z,96955.13
2023-01-20T04:18:56.143Z,96955.91
2023-01-20T04:21:30.418Z,96955.13
2023-01-20T04:24:02.828Z,96959.09
2023-01-20T04:26:29.411Z,96964.34
2023-01-20T04:28:56.003Z,96962.97
2023-01-20T04:31:30.702Z,96967.16
2023-01-20T04:33:58.006Z,96959.50
2023-01-20T04:36:24.602Z,96965.25
2023-01-20T04:38:51.092Z,96975.63
2023-01-20T04:41:18.012Z,96972.13
2023-01-20T04:43:46.041Z,96979.97
2023-01-20T04:46:16.309Z,96978.34
2023-01-20T04:48:44.908Z,96972.19
2023-01-20T04:51:11.457Z,96982.94
2023-01-20T04:53:38.251Z,96985.25
2023-01-20T04:56:04.995Z,96991.19
2023-01-20T04:58:31.360Z,96990.03
2023-01-20T05:01:01.915Z,96992.97
2023-01-20T05:03:28.496Z,96993.63
2023-01-20T05:05:55.119Z,96997.56
2023-01-20T05:08:22.358Z,96998.28
2023-01-20T05:10:49.637Z,97017.16
2023-01-20T05:13:16.165Z,97020.03
2023-01-20T05:15:44.055Z,97015.69
2023-01-20T05:18:10.875Z,97024.34
2023-01-20T05:20:37.654Z,97028.16
2023-01-20T05:23:04.081Z,97029.72
2023-01-20T05:25:30.616Z,97027.72
2023-01-20T05:27:58.685Z,97026.16
2023-01-20T05:30:25.211Z,97034.44
2023-01-20T05:32:52.322Z,97024.34
2023-01-20T05:35:19.041Z,97031.84
2023-01-20T05:37:45.405Z,97031.13
2023-01-20T05:40:13.164Z,97033.53
2023-01-20T05:42:39.906Z,97042.09
2023-01-20T05:45:07.030Z,97039.81
2023-01-20T05:47:33.351Z,97047.66
2023-01-20T05:49:59.869Z,97043.63
2023-01-20T05:52:26.378Z,97056.44
2023-01-20T05:54:52.884Z,97062.09
2023-01-20T05:57:19.464Z,97061.41
2023-01-20T05:59:48.469Z,97065.06
2023-01-20T06:02:18.901Z,97068.44
2023-01-20T06:04:49.248Z,97063.78
2023-01-20T06:07:15.708Z,97069.75
2023-01-20T06:09:42.070Z,97068.34
2023-01-20T06:12:08.534Z,97073.50
2023-01-20T06:14:35.022Z,97069.31
2023-01-20T06:17:01.559Z,97070.09
2023-01-20T06:19:28.070Z,97071.88
2023-01-20T06:21:54.708Z,97074.00
2023-01-20T06:24:21.223Z,97081.94
2023-01-20T06:26:50.706Z,97082.19
2023-01-20T06:29:17.215Z,97087.59
2023-01-20T06:31:44.760Z,97085.44
2023-01-20T06:34:13.794Z,97087.94
2023-01-20T06:36:40.157Z,97084.53
2023-01-20T06:39:07.036Z,97091.34
2023-01-20T06:41:33.897Z,97091.34
2023-01-20T06:44:00.404Z,97097.34
2023-01-20T06:46:27.032Z,97095.34
2023-01-20T06:49:00.424Z,97103.31
2023-01-20T06:51:29.421Z,97106.81
2023-01-20T06:53:56.888Z,97103.88
2023-01-20T06:56:23.632Z,97113.97
2023-01-20T06:58:50.705Z,97111.94
2023-01-20T07:01:28.885Z,97118.34
2023-01-20T07:03:56.112Z,97126.22
2023-01-20T07:06:32.595Z,97135.16
2023-01-20T07:09:00.463Z,97136.81
2023-01-20T07:11:27.915Z,97133.88
2023-01-20T07:13:54.691Z,97143.06
2023-01-20T07:16:21.242Z,97146.19
2023-01-20T07:18:50.172Z,97145.41
2023-01-20T07:21:17.328Z,97148.50
2023-01-20T07:23:44.101Z,97147.31
2023-01-20T07:26:17.017Z,97156.00
2023-01-20T07:28:44.350Z,97164.38
2023-01-20T07:31:13.757Z,97159.00
2023-01-20T07:33:40.456Z,97166.69
2023-01-20T07:36:08.548Z,97175.03
2023-01-20T07:38:35.217Z,97176.63
2023-01-20T07:41:05.274Z,97175.97
2023-01-20T07:43:32.818Z,97176.63
2023-01-20T07:46:01.181Z,97174.47
2023-01-20T07:48:29.652Z,97187.72
2023-01-20T07:51:03.236Z,97188.06
2023-01-20T07:53:30.731Z,97194.75
2023-01-20T07:56:01.212Z,97195.44
2023-01-20T07:58:28.784Z,97196.09
2023-01-20T08:00:55.726Z,97197.28
2023-01-20T08:03:22.852Z,97195.59
2023-01-20T08:05:49.532Z,97208.63
2023-01-20T08:08:16.003Z,97201.03
2023-01-20T08:10:42.580Z,97207.19
2023-01-20T08:13:09.102Z,97211.88
2023-01-20T08:15:35.474Z,97210.44
2023-01-20T08:18:01.971Z,97214.00
2023-01-20T08:20:28.367Z,97219.38
2023-01-20T08:22:54.980Z,97219.59
2023-01-20T08:25:21.368Z,97221.19
2023-01-20T08:27:49.512Z,97225.75
2023-01-20T08:30:15.970Z,97232.22
2023-01-20T08:32:42.582Z,97232.09
2023-01-20T08:35:09.262Z,97235.56
2023-01-20T08:37:37.060Z,97238.75
2023-01-20T08:40:09.675Z,97235.53
2023-01-20T08:42:38.012Z,97238.19
2023-01-20T08:45:07.453Z,97244.34
2023-01-20T08:47:39.197Z,97244.88
2023-01-20T08:50:07.160Z,97253.34
2023-01-20T08:52:34.275Z,97250.78
2023-01-20T08:55:00.734Z,97252.94
2023-01-20T08:57:27.626Z,97258.72
2023-01-20T08:59:54.917Z,97256.97
2023-01-20T09:02:23.277Z,97259.81
2023-01-20T09:04:50.382Z,97261.97
2023-01-20T09:07:19.719Z,97261.38
2023-01-20T09:09:46.715Z,97274.63
2023-01-20T09:12:13.377Z,97265.34
2023-01-20T09:14:39.898Z,97271.88
2023-01-20T09:17:06.941Z,97278.50
2023-01-20T09:19:33.423Z,97281.28
2023-01-20T09:21:59.792Z,97287.16
2023-01-20T09:24:26.317Z,97293.06
2023-01-20T09:26:53.388Z,97288.94
2023-01-20T09:29:22.519Z,97292.03
2023-01-20T09:31:58.232Z,97295.44
2023-01-20T09:34:27.907Z,97302.97
2023-01-20T09:36:56.915Z,97301.97
2023-01-20T09:39:42.546Z,97307.50
2023-01-20T09:42:41.368Z,97305.03
2023-01-20T09:45:25.360Z,97308.97
2023-01-20T09:47:59.354Z,97316.78
2023-01-20T09:50:44.415Z,97319.06
2023-01-20T09:53:35.777Z,97311.03
2023-01-20T09:56:20.138Z,97317.56
2023-01-20T09:58:56.375Z,97321.81
2023-01-20T10:01:32.425Z,97313.72
2023-01-20T10:04:12.448Z,97319.13
2023-01-20T10:06:49.817Z,97314.84
2023-01-20T10:09:26.574Z,97307.19
2023-01-20T10:12:02.749Z,97318.34
2023-01-20T10:14:37.434Z,97307.63
2023-01-20T10:17:12.861Z,97307.78
2023-01-20T10:20:03.990Z,97309.88
2023-01-20T10:22:45.545Z,97312.22
2023-01-20T10:25:43.291Z,97322.38
2023-01-20T10:28:29.168Z,97322.22
2023-01-20T10:30:58.417Z,97313.81
2023-01-20T10:33:30.063Z,97314.69
2023-01-20T10:36:00.290Z,97320.66
2023-01-20T10:38:40.877Z,97318.53
2023-01-20T10:41:24.167Z,97319.06
2023-01-20T10:43:50.743Z,97317.31
2023-01-20T10:46:46.828Z,97317.28
2023-01-20T10:49:45.861Z,97316.03
2023-01-20T10:52:36.258Z,97327.34
2023-01-20T10:55:11.738Z,97323.53
2023-01-20T10:57:39.020Z,97320.13
2023-01-20T11:00:17.617Z,97318.56
2023-01-20T11:02:44.007Z,97329.47
2023-01-20T11:05:19.472Z,97324.63
2023-01-20T11:07:47.267Z,97321.75
2023-01-20T11:10:15.641Z,97332.59
2023-01-20T11:12:46.446Z,97329.94
2023-01-20T11:15:16.235Z,97330.53
2023-01-20T11:17:44.833Z,97325.50
2023-01-20T11:20:19.583Z,97321.81
2023-01-20T11:22:48.922Z,97318.81
2023-01-20T11:25:25.894Z,97321.69
2023-01-20T11:27:52.619Z,97324.06
2023-01-20T11:30:32.387Z,97325.38
2023-01-20T11:33:20.770Z,97324.56
2023-01-20T11:36:18.898Z,97323.16
2023-01-20T11:38:48.162Z,97323.84
2023-01-20T11:41:41.263Z,97320.03
2023-01-20T11:44:08.701Z,97325.16
2023-01-20T11:46:37.338Z,97323.09
2023-01-20T11:49:13.793Z,97321.94
2023-01-20T11:51:57.304Z,97317.94
2023-01-20T11:54:27.196Z,97327.47
2023-01-20T11:56:57.377Z,97324.97
2023-01-20T11:59:28.575Z,97316.25
2023-01-20T12:01:58.586Z,97321.84
2023-01-20T12:05:05.595Z,97328.41
2023-01-20T12:07:44.082Z,97328.19
2023-01-20T12:10:19.335Z,97334.53
2023-01-20T12:12:51.127Z,97328.63
2023-01-20T12:15:20.669Z,97333.75
2023-01-20T12:18:26.039Z,97331.25
2023-01-20T12:21:08.090Z,97339.09
2023-01-20T12:23:52.668Z,97331.50
2023-01-20T12:26:22.419Z,97334.53
2023-01-20T12:29:04.220Z,97337.75
2023-01-20T12:31:32.001Z,97345.00
2023-01-20T12:34:03.458Z,97341.47
2023-01-20T12:36:51.954Z,97344.91
2023-01-20T12:39:38.268Z,97341.25
2023-01-20T12:42:11.038Z,97342.56
2023-01-20T12:44:58.890Z,97347.94
2023-01-20T12:47:44.651Z,97343.00
2023-01-20T12:50:23.577Z,97342.63
2023-01-20T12:53:23.180Z,97346.88
2023-01-20T12:56:17.992Z,97349.66
2023-01-20T12:59:05.652Z,97347.63
2023-01-20T13:01:49.411Z,97353.81
2023-01-20T13:04:38.440Z,97349.09
2023-01-20T13:07:40.128Z,97350.28
2023-01-20T13:10:21.860Z,97352.50
2023-01-20T13:12:59.443Z,97355.44
2023-01-20T13:15:33.075Z,97359.97
2023-01-20T13:18:37.036Z,97347.84
2023-01-20T13:21:03.728Z,97357.44
2023-01-20T13:23:39.493Z,97361.88
2023-01-20T13:26:06.274Z,97361.00
2023-01-20T13:28:33.140Z,97359.97
2023-01-20T13:31:01.879Z,97361.94
2023-01-20T13:33:40.660Z,97367.28
2023-01-20T13:36:20.072Z,97372.84
2023-01-20T13:38:48.744Z,97368.56
2023-01-20T13:41:47.939Z,97381.38
2023-01-20T13:44:37.564Z,97380.78
2023-01-20T13:47:08.379Z,97386.09
2023-01-20T13:49:55.124Z,97387.13
2023-01-20T13:52:50.679Z,97388.66
2023-01-20T13:55:41.481Z,97395.38
2023-01-20T13:58:31.169Z,97392.69
2023-01-20T14:01:03.305Z,97395.78
2023-01-20T14:03:36.035Z,97390.38
2023-01-20T14:06:18.295Z,97401.44
2023-01-20T14:08:47.475Z,97404.97
2023-01-20T14:11:24.666Z,97398.91
2023-01-20T14:13:56.535Z,97405.88
2023-01-20T14:16:27.184Z,97409.38
2023-01-20T14:19:15.244Z,97415.41
2023-01-20T14:21:42.650Z,97423.31
2023-01-20T14:24:28.458Z,97410.84
2023-01-20T14:27:29.545Z,97414.84
2023-01-20T14:29:59.644Z,97419.47
2023-01-20T14:32:28.704Z,97421.91
2023-01-20T14:34:57.040Z,97423.41
2023-01-20T14:37:28.692Z,97427.38
2023-01-20T14:39:58.651Z,97438.06
2023-01-20T14:42:27.552Z,97432.66
2023-01-20T14:44:57.808Z,97433.81
2023-01-20T14:47:25.889Z,97434.53
2023-01-20T14:49:54.062Z,97439.03
2023-01-20T14:52:25.649Z,97443.28
2023-01-20T14:54:53.244Z,97447.94
2023-01-20T14:57:43.497Z,97454.63
2023-01-20T15:00:21.233Z,97456.09
2023-01-20T15:03:05.353Z,97462.19
2023-01-20T15:05:37.257Z,97458.06
2023-01-20T15:08:04.836Z,97465.38
2023-01-20T15:10:33.887Z,97463.69
2023-01-20T15:13:00.811Z,97466.41
2023-01-20T15:15:32.250Z,97471.34
2023-01-20T15:18:20.583Z,97477.81
2023-01-20T15:20:58.629Z,97478.94
2023-01-20T15:23:42.096Z,97485.06
2023-01-20T15:26:35.830Z,97483.97
2023-01-20T15:29:02.315Z,97489.31
2023-01-20T15:31:28.903Z,97493.66
2023-01-20T15:33:55.484Z,97502.13
2023-01-20T15:36:33.251Z,97498.16
2023-01-20T15:38:59.615Z,97511.28
2023-01-20T15:41:26.124Z,97513.56
2023-01-20T15:43:52.739Z,97516.06
2023-01-20T15:46:19.881Z,97520.38
2023-01-20T15:48:46.778Z,97516.06
2023-01-20T15:51:18.259Z,97524.84
2023-01-20T15:53:45.763Z,97520.16
2023-01-20T15:56:24.121Z,97529.34
2023-01-20T15:58:51.250Z,97528.47
2023-01-20T16:01:20.711Z,97541.88
2023-01-20T16:03:47.144Z,97540.69
2023-01-20T16:06:16.175Z,97546.75
2023-01-20T16:08:47.853Z,97545.63
2023-01-20T16:11:14.982Z,97545.16
2023-01-20T16:13:41.866Z,97549.97
2023-01-20T16:16:21.045Z,97551.09
2023-01-20T16:18:48.316Z,97555.47
2023-01-20T16:21:17.657Z,97560.91
2023-01-20T16:23:44.281Z,97557.72
2023-01-20T16:26:22.872Z,97561.28
2023-01-20T16:28:55.609Z,97563.66
2023-01-20T16:31:23.273Z,97561.56
2023-01-20T16:33:50.229Z,97564.44
2023-01-20T16:36:19.612Z,97569.28
2023-01-20T16:38:46.572Z,97574.63
2023-01-20T16:41:25.155Z,97576.44
2023-01-20T16:43:53.385Z,97572.59
2023-01-20T16:46:27.775Z,97577.41
2023-01-20T16:48:59.348Z,97576.69
2023-01-20T16:51:26.515Z,97577.06
2023-01-20T16:53:53.752Z,97586.34
2023-01-20T16:56:22.669Z,97584.06
2023-01-20T16:58:51.823Z,97587.06
2023-01-20T17:01:24.735Z,97595.56
2023-01-20T17:03:53.399Z,97598.34
2023-01-20T17:06:26.430Z,97598.41
2023-01-20T17:08:55.378Z,97606.84
2023-01-20T17:11:30.279Z,97601.53
2023-01-20T17:13:57.944Z,97609.00
2023-01-20T17:16:26.430Z,97603.28
2023-01-20T17:18:54.587Z,97606.41
2023-01-20T17:21:22.498Z,97604.25
2023-01-20T17:24:15.544Z,97608.06
2023-01-20T17:26:42.256Z,97614.31
2023-01-20T17:29:10.148Z,97608.41
2023-01-20T17:31:36.954Z,97616.19
2023-01-20T17:34:05.134Z,97610.38
2023-01-20T17:36:34.998Z,97615.25
2023-01-20T17:39:03.298Z,97607.41
2023-01-20T17:41:29.833Z,97610.38
2023-01-20T17:43:56.181Z,97615.16
2023-01-20T17:46:28.841Z,97624.63
2023-01-20T17:49:00.381Z,97624.34
2023-01-20T17:51:28.705Z,97620.16
2023-01-20T17:53:56.910Z,97626.09
2023-01-20T17:56:23.301Z,97632.69
2023-01-20T17:58:50.202Z,97631.22
2023-01-20T18:01:19.691Z,97633.97
2023-01-20T18:03:48.499Z,97639.81
2023-01-20T18:06:16.833Z,97644.88
2023-01-20T18:08:43.956Z,97647.56
2023-01-20T18:11:15.214Z,97646.56
2023-01-20T18:13:44.849Z,97650.59
2023-01-20T18:16:13.404Z,97654.16
2023-01-20T18:18:41.056Z,97650.59
2023-01-20T18:21:16.346Z,97657.38
2023-01-20T18:23:43.289Z,97653.88
2023-01-20T18:26:11.222Z,97657.34
2023-01-20T18:28:38.247Z,97653.09
2023-01-20T18:31:10.869Z,97654.78
2023-01-20T18:33:44.469Z,97662.28
2023-01-20T18:36:14.905Z,97655.69
2023-01-20T18:38:43.533Z,97652.75
2023-01-20T18:41:11.195Z,97658.03
2023-01-20T18:43:38.261Z,97666.13
2023-01-20T18:46:06.054Z,97657.75
2023-01-20T18:48:33.850Z,97671.06
2023-01-20T18:51:01.794Z,97667.47
2023-01-20T18:53:29.654Z,97669.16
2023-01-20T18:56:03.866Z,97662.34
2023-01-20T18:58:30.773Z,97660.09
2023-01-20T19:01:09.101Z,97669.28
2023-01-20T19:03:37.143Z,97658.97
2023-01-20T19:06:10.929Z,97658.09
2023-01-20T19:08:38.931Z,97665.97
2023-01-20T19:11:10.771Z,97669.53
2023-01-20T19:13:37.600Z,97674.47
2023-01-20T19:16:06.154Z,97679.84
2023-01-20T19:18:32.692Z,97682.19
2023-01-20T19:21:07.309Z,97678.50
2023-01-20T19:23:34.067Z,97687.69
2023-01-20T19:26:11.952Z,97684.53
2023-01-20T19:28:39.427Z,97675.34
2023-01-20T19:31:11.412Z,97682.31
2023-01-20T19:33:38.406Z,97675.94
2023-01-20T19:36:09.184Z,97688.78
2023-01-20T19:38:35.743Z,97692.88
2023-01-20T19:41:19.400Z,97694.13
2023-01-20T19:43:45.953Z,97691.88
2023-01-20T19:46:15.200Z,97702.53
2023-01-20T19:48:42.907Z,97696.72
2023-01-20T19:51:12.851Z,97701.41
2023-01-20T19:53:39.795Z,97704.31
2023-01-20T19:56:11.728Z,97699.84
2023-01-20T19:58:39.028Z,97707.31
2023-01-20T20:01:15.875Z,97704.50
2023-01-20T20:03:43.108Z,97707.25
2023-01-20T20:06:24.744Z,97717.94
2023-01-20T20:08:52.423Z,97710.63
2023-01-20T20:11:19.045Z,97710.84
2023-01-20T20:13:45.666Z,97716.13
2023-01-20T20:16:12.338Z,97720.94
2023-01-20T20:18:38.947Z,97720.16
2023-01-20T20:21:06.802Z,97716.59
2023-01-20T20:23:33.167Z,97719.81
2023-01-20T20:25:59.743Z,97725.09
2023-01-20T20:28:28.735Z,97728.47
2023-01-20T20:30:58.288Z,97721.63
2023-01-20T20:33:25.115Z,97726.78
2023-01-20T20:35:52.487Z,97734.84
2023-01-20T20:38:19.054Z,97730.59
2023-01-20T20:40:45.627Z,97730.59
2023-01-20T20:43:12.152Z,97731.72
2023-01-20T20:45:38.700Z,97728.34
2023-01-20T20:48:05.407Z,97723.88
2023-01-20T20:50:31.902Z,97722.53
2023-01-20T20:52:59.218Z,97734.84
2023-01-20T20:55:26.305Z,97736.63
2023-01-20T20:57:53.574Z,97728.38
2023-01-20T21:00:23.603Z,97731.94
2023-01-20T21:02:50.361Z,97737.22
2023-01-20T21:05:19.035Z,97736.97
2023-01-20T21:07:46.109Z,97732.63
2023-01-20T21:10:15.880Z,97736.75
2023-01-20T21:12:44.200Z,97732.38
2023-01-20T21:15:11.738Z,97727.13
2023-01-20T21:17:40.276Z,97732.06
2023-01-20T21:20:08.097Z,97731.28
2023-01-20T21:22:34.477Z,97735.09
2023-01-20T21:25:00.889Z,97737.44
2023-01-20T21:27:27.365Z,97744.25
2023-01-20T21:29:53.888Z,97741.59
2023-01-20T21:32:20.380Z,97741.69
2023-01-20T21:34:48.282Z,97745.84
2023-01-20T21:37:14.895Z,97740.91
2023-01-20T21:39:41.392Z,97743.25
2023-01-20T21:42:09.065Z,97745.59
2023-01-20T21:44:36.572Z,97746.94
2023-01-20T21:47:08.128Z,97747.19
2023-01-20T21:49:54.186Z,97755.69
2023-01-20T21:52:41.483Z,97753.00
2023-01-20T21:55:10.478Z,97761.28
2023-01-20T21:57:38.845Z,97755.56
2023-01-20T22:00:07.660Z,97756.34
2023-01-20T22:02:34.277Z,97757.00
2023-01-20T22:05:00.846Z,97761.25
2023-01-20T22:07:27.488Z,97760.47
2023-01-20T22:09:55.053Z,97757.91
2023-01-20T22:12:22.766Z,97759.59
2023-01-20T22:14:49.343Z,97767.53
2023-01-20T22:17:15.849Z,97765.97
2023-01-20T22:19:43.751Z,97771.44
2023-01-20T22:22:10.591Z,97768.41
2023-01-20T22:24:37.198Z,97770.41
2023-01-20T22:27:03.798Z,97767.88
2023-01-20T22:29:30.512Z,97775.22
2023-01-20T22:31:59.508Z,97780.59
2023-01-20T22:34:26.205Z,97777.47
2023-01-20T22:36:55.834Z,97780.69
2023-01-20T22:39:22.545Z,97778.97
2023-01-20T22:41:49.235Z,97778.78
2023-01-20T22:44:15.684Z,97789.53
2023-01-20T22:46:42.609Z,97790.41
2023-01-20T22:49:09.739Z,97793.41
2023-01-20T22:51:36.296Z,97792.03
2023-01-20T22:54:03.145Z,97795.66
2023-01-20T22:56:32.111Z,97800.09
2023-01-20T22:58:59.732Z,97795.91
2023-01-20T23:01:29.769Z,97799.19
2023-01-20T23:04:00.416Z,97799.88
2023-01-20T23:06:28.562Z,97798.28
2023-01-20T23:08:54.916Z,97794.50
2023-01-20T23:11:23.587Z,97790.88
2023-01-20T23:13:50.656Z,97791.38
2023-01-20T23:16:19.926Z,97790.88
2023-01-20T23:18:46.965Z,97793.56
2023-01-20T23:21:13.987Z,97790.81
2023-01-20T23:23:40.616Z,97803.78
2023-01-20T23:26:15.280Z,97804.72
2023-01-20T23:28:46.206Z,97811.78
2023-01-20T23:31:15.494Z,97807.28
2023-01-20T23:33:43.791Z,97810.56
2023-01-20T23:36:15.395Z,97810.22
2023-01-20T23:38:43.033Z,97809.09
2023-01-20T23:41:09.897Z,97802.09
2023-01-20T23:43:36.385Z,97802.75
2023-01-20T23:46:06.229Z,97804.97
2023-01-20T23:48:33.990Z,97814.13
2023-01-20T23:51:01.749Z,97813.47
2023-01-20T23:53:32.363Z,97816.38
2023-01-20T23:56:00.443Z,97813.09
2023-01-20T23:58:27.051Z,97816.44
